Time;durP1;ratioP1;P1;durP2;ratioP2;P2;SDS_P1;SDS_P2;PMS_P1;PMS_P2;Temp;Humidity;BMP_temperature;BMP_pressure;BME280_temperature;BME280_humidity;BME280_pressure;Samples;Min_cycle;Max_cycle;Signal;HPM_P1;HPM_P2
2022/04/29 00:01:30;;;;;;;8.98;4.03;;;7.10;99.90;;;;;;4984017;28;20270;-58
2022/04/29 00:03:56;;;;;;;8.88;4.68;;;7.10;99.90;;;;;;4976928;28;20042;-57
2022/04/29 00:06:22;;;;;;;12.20;5.50;;;7.10;99.90;;;;;;4980716;28;20261;-57
2022/04/29 00:08:48;;;;;;;11.68;4.28;;;7.10;99.90;;;;;;4992004;28;20287;-58
2022/04/29 00:11:14;;;;;;;6.97;4.10;;;7.10;99.90;;;;;;4966917;28;20128;-58
2022/04/29 00:13:39;;;;;;;7.78;3.97;;;7.10;99.90;;;;;;4972580;28;20038;-58
2022/04/29 00:16:05;;;;;;;11.63;4.07;;;7.10;99.90;;;;;;4984734;28;20035;-57
2022/04/29 00:18:32;;;;;;;12.98;4.43;;;7.10;99.90;;;;;;4964886;28;20040;-58
2022/04/29 00:20:58;;;;;;;8.07;4.00;;;7.00;99.90;;;;;;4970478;28;20124;-58
2022/04/29 00:23:24;;;;;;;9.02;4.72;;;7.00;99.90;;;;;;4972935;28;20246;-58
2022/04/29 00:25:49;;;;;;;6.82;3.92;;;6.90;99.90;;;;;;4989377;28;20050;-58
2022/04/29 00:28:15;;;;;;;11.95;4.35;;;6.90;99.90;;;;;;4987534;28;20030;-58
2022/04/29 00:30:41;;;;;;;9.95;4.85;;;6.80;99.90;;;;;;4983984;28;20133;-58
2022/04/29 00:33:07;;;;;;;9.95;4.88;;;6.90;99.90;;;;;;4961765;28;20057;-57
2022/04/29 00:35:34;;;;;;;8.18;4.60;;;6.90;99.90;;;;;;4969473;28;20104;-58
2022/04/29 00:38:00;;;;;;;7.95;4.93;;;6.80;99.90;;;;;;4988391;28;20051;-58
2022/04/29 00:40:28;;;;;;;10.75;4.85;;;6.80;99.90;;;;;;4989679;28;20101;-57
2022/04/29 00:42:54;;;;;;;9.02;4.82;;;6.80;99.90;;;;;;4985510;28;20048;-58
2022/04/29 00:45:21;;;;;;;9.75;5.28;;;6.80;99.90;;;;;;4951277;28;20038;-58
2022/04/29 00:47:49;;;;;;;11.57;5.07;;;6.80;99.90;;;;;;4986212;28;20042;-57
2022/04/29 00:50:19;;;;;;;7.75;4.25;;;6.80;99.90;;;;;;4986246;28;20084;-58
2022/04/29 00:52:49;;;;;;;12.43;5.15;;;6.80;99.90;;;;;;4983800;28;20070;-57
2022/04/29 00:55:16;;;;;;;7.05;4.82;;;6.80;99.90;;;;;;4991204;28;20093;-58
2022/04/29 00:57:52;;;;;;;13.45;4.80;;;6.80;99.90;;;;;;4973965;28;20405;-57
2022/04/29 01:00:18;;;;;;;12.57;4.65;;;6.80;99.90;;;;;;4985903;28;20050;-57
2022/04/29 01:02:51;;;;;;;10.82;4.85;;;6.80;99.90;;;;;;4968942;28;20493;-57
2022/04/29 01:05:20;;;;;;;14.23;4.63;;;6.70;99.90;;;;;;4974979;28;20046;-57
2022/04/29 01:07:46;;;;;;;9.40;4.63;;;6.80;99.90;;;;;;4990358;28;20073;-56
2022/04/29 01:10:14;;;;;;;9.85;5.25;;;6.80;99.90;;;;;;4981289;28;20034;-57
2022/04/29 01:12:43;;;;;;;10.40;5.35;;;6.80;99.90;;;;;;4989157;28;20038;-58
2022/04/29 01:15:15;;;;;;;9.32;4.45;;;6.80;99.90;;;;;;4987990;28;20034;-57
2022/04/29 01:17:45;;;;;;;10.02;5.65;;;6.80;99.90;;;;;;4984627;28;20038;-58
2022/04/29 01:20:17;;;;;;;8.70;5.15;;;6.80;99.90;;;;;;4961378;28;20045;-56
2022/04/29 01:22:44;;;;;;;7.75;4.15;;;6.80;99.90;;;;;;4985999;28;20464;-56
2022/04/29 01:25:11;;;;;;;8.23;4.43;;;6.80;99.90;;;;;;4972146;28;20047;-57
2022/04/29 01:27:37;;;;;;;10.85;5.25;;;6.80;99.90;;;;;;4981102;28;21156;-58
2022/04/29 01:30:11;;;;;;;9.55;4.43;;;6.80;99.90;;;;;;4980346;28;20053;-57
2022/04/29 01:32:39;;;;;;;9.05;4.20;;;6.80;99.90;;;;;;4957799;28;20038;-57
2022/04/29 01:35:06;;;;;;;8.60;4.40;;;6.80;99.90;;;;;;4979621;28;20571;-58
2022/04/29 01:37:33;;;;;;;8.07;4.28;;;6.70;99.90;;;;;;4992661;28;20093;-57
2022/04/29 01:39:59;;;;;;;6.60;4.43;;;6.70;99.90;;;;;;4986226;28;20041;-58
2022/04/29 01:42:25;;;;;;;6.65;4.55;;;6.70;99.90;;;;;;4963603;28;20448;-58
2022/04/29 01:44:51;;;;;;;9.65;5.28;;;6.70;99.90;;;;;;4997380;28;20108;-57
2022/04/29 01:47:17;;;;;;;8.07;4.93;;;6.70;99.90;;;;;;4980190;28;20057;-58
2022/04/29 01:49:43;;;;;;;11.10;5.10;;;6.70;99.90;;;;;;4983331;28;20073;-57
2022/04/29 01:52:08;;;;;;;12.07;5.13;;;6.70;99.90;;;;;;4983719;28;20097;-57
2022/04/29 01:54:38;;;;;;;13.40;5.20;;;6.70;99.90;;;;;;4992120;28;20119;-56
2022/04/29 01:57:05;;;;;;;8.57;4.15;;;6.70;99.90;;;;;;4953855;28;20498;-58
2022/04/29 01:59:31;;;;;;;9.82;6.03;;;6.70;99.90;;;;;;4984303;28;20652;-58
2022/04/29 02:01:58;;;;;;;10.57;5.07;;;6.70;99.90;;;;;;4989782;28;20405;-56
2022/04/29 02:04:24;;;;;;;8.13;4.63;;;6.70;99.90;;;;;;4986274;28;20073;-57
2022/04/29 02:06:50;;;;;;;9.68;5.15;;;6.70;99.90;;;;;;4982943;28;20109;-58
2022/04/29 02:09:16;;;;;;;8.07;4.28;;;6.70;99.90;;;;;;4958087;28;20224;-57
2022/04/29 02:12:04;;;;;;;7.22;3.92;;;6.70;99.90;;;;;;4974372;28;20069;-58
2022/04/29 02:14:30;;;;;;;10.02;5.10;;;6.70;99.90;;;;;;4980744;28;20050;-57
2022/04/29 02:16:57;;;;;;;7.55;4.70;;;6.70;99.90;;;;;;4979535;28;20035;-57
2022/04/29 02:19:24;;;;;;;9.60;5.00;;;6.70;99.90;;;;;;4988260;28;20030;-58
2022/04/29 02:21:51;;;;;;;9.32;4.57;;;6.70;99.90;;;;;;4965337;28;20051;-56
2022/04/29 02:24:16;;;;;;;8.77;5.00;;;6.60;99.90;;;;;;4966848;28;20129;-57
2022/04/29 02:26:42;;;;;;;8.50;5.05;;;6.60;99.90;;;;;;4981357;28;20134;-58
2022/04/29 02:29:08;;;;;;;8.93;5.32;;;6.60;99.90;;;;;;4987976;28;20081;-57
2022/04/29 02:31:34;;;;;;;9.38;4.85;;;6.50;99.90;;;;;;4985792;28;20093;-54
2022/04/29 02:34:00;;;;;;;11.60;5.40;;;6.60;99.90;;;;;;4984900;28;20038;-58
2022/04/29 02:36:25;;;;;;;8.20;4.65;;;6.50;99.90;;;;;;4980571;28;20034;-58
2022/04/29 02:38:51;;;;;;;11.55;5.93;;;6.50;99.90;;;;;;4977313;28;20033;-57
2022/04/29 02:41:17;;;;;;;7.78;4.50;;;6.50;99.90;;;;;;4983824;28;20054;-58
2022/04/29 02:43:44;;;;;;;14.07;5.90;;;6.50;99.90;;;;;;4987385;28;20095;-57
2022/04/29 02:46:10;;;;;;;9.98;5.88;;;6.50;99.90;;;;;;4988839;28;20038;-58
2022/04/29 02:48:35;;;;;;;11.88;5.30;;;6.50;99.90;;;;;;4981618;28;20513;-58
2022/04/29 02:51:04;;;;;;;8.25;4.85;;;6.50;99.90;;;;;;4985581;28;20050;-58
2022/04/29 02:53:31;;;;;;;13.65;5.60;;;6.50;99.90;;;;;;4976047;28;20402;-57
2022/04/29 02:55:57;;;;;;;10.02;4.38;;;6.50;99.90;;;;;;4986955;28;20042;-58
2022/04/29 02:58:22;;;;;;;9.82;5.50;;;6.50;99.90;;;;;;4991895;28;20561;-57
2022/04/29 03:00:48;;;;;;;8.48;5.72;;;6.50;99.90;;;;;;4986486;28;20121;-58
2022/04/29 03:03:14;;;;;;;11.20;5.13;;;6.40;99.90;;;;;;4985786;28;20297;-58
2022/04/29 03:05:40;;;;;;;13.23;5.13;;;6.40;99.90;;;;;;4985618;28;20046;-58
2022/04/29 03:08:07;;;;;;;10.88;5.45;;;6.40;99.90;;;;;;4992710;28;20050;-58
2022/04/29 03:10:34;;;;;;;9.30;5.15;;;6.40;99.90;;;;;;4991048;28;20125;-57
2022/04/29 03:13:00;;;;;;;10.60;5.68;;;6.40;99.90;;;;;;4979535;28;20058;-58
2022/04/29 03:15:26;;;;;;;9.88;5.68;;;6.40;99.90;;;;;;4989658;28;20366;-58
2022/04/29 03:20:39;;;;;;;9.57;5.57;;;6.40;99.90;;;;;;4994522;28;20560;-58
2022/04/29 03:23:05;;;;;;;11.15;6.60;;;6.30;99.90;;;;;;4969927;28;20088;-58
2022/04/29 03:25:33;;;;;;;13.93;6.45;;;6.40;99.90;;;;;;4978132;28;20201;-58
2022/04/29 03:27:58;;;;;;;9.18;6.13;;;6.50;99.90;;;;;;4974073;28;20069;-58
2022/04/29 03:30:24;;;;;;;15.57;7.65;;;6.40;99.90;;;;;;4978196;28;20501;-57
2022/04/29 03:32:55;;;;;;;9.95;6.60;;;6.40;99.90;;;;;;4983993;28;20134;-58
2022/04/29 03:35:22;;;;;;;12.90;6.20;;;6.40;99.90;;;;;;4966911;28;20108;-58
2022/04/29 03:37:51;;;;;;;10.88;6.82;;;6.50;99.90;;;;;;4972505;28;20129;-58
2022/04/29 03:40:21;;;;;;;9.90;6.60;;;6.50;99.90;;;;;;4984848;28;20485;-58
2022/04/29 03:42:52;;;;;;;9.98;6.60;;;6.50;99.90;;;;;;4975601;28;20050;-58
2022/04/29 03:45:18;;;;;;;12.45;6.88;;;6.50;99.90;;;;;;4984328;28;20164;-58
2022/04/29 03:47:44;;;;;;;9.55;5.40;;;6.50;99.90;;;;;;4983474;28;20477;-58
2022/04/29 03:50:11;;;;;;;7.53;5.10;;;6.50;99.90;;;;;;4987587;28;20039;-57
2022/04/29 03:52:58;;;;;;;8.93;5.97;;;6.50;99.90;;;;;;4979280;28;20078;-57
2022/04/29 03:55:29;;;;;;;13.90;6.75;;;6.50;99.90;;;;;;4983777;28;20515;-58
2022/04/29 03:57:56;;;;;;;9.77;5.80;;;6.50;99.90;;;;;;4975809;28;20094;-58
2022/04/29 04:00:28;;;;;;;9.77;5.85;;;6.50;99.90;;;;;;4983282;28;20061;-58
2022/04/29 04:02:54;;;;;;;10.50;5.68;;;6.50;99.90;;;;;;4968594;28;20069;-56
2022/04/29 04:05:19;;;;;;;11.20;6.63;;;6.50;99.90;;;;;;4993201;28;20042;-58
2022/04/29 04:07:46;;;;;;;9.43;5.80;;;6.50;99.90;;;;;;4982677;28;20062;-58
2022/04/29 04:10:13;;;;;;;9.50;6.10;;;6.50;99.90;;;;;;4972965;28;20037;-57
2022/04/29 04:12:46;;;;;;;9.10;5.55;;;6.60;99.90;;;;;;4968442;28;20121;-58
2022/04/29 04:15:13;;;;;;;8.85;5.68;;;6.60;99.90;;;;;;4985421;28;20057;-58
2022/04/29 04:17:40;;;;;;;10.85;6.43;;;6.60;99.90;;;;;;4981540;28;20275;-57
2022/04/29 04:20:08;;;;;;;11.02;7.15;;;6.60;99.90;;;;;;4982042;28;20117;-58
2022/04/29 04:22:37;;;;;;;10.57;6.15;;;6.70;99.90;;;;;;4977229;28;20046;-57
2022/04/29 04:25:08;;;;;;;10.27;5.90;;;6.70;99.90;;;;;;4989847;28;20100;-57
2022/04/29 04:27:34;;;;;;;8.65;6.00;;;6.80;99.90;;;;;;4980407;28;20034;-57
2022/04/29 04:30:00;;;;;;;12.00;7.00;;;6.70;99.90;;;;;;4967274;28;20121;-58
2022/04/29 04:32:27;;;;;;;12.57;6.63;;;6.80;99.90;;;;;;4985113;28;20104;-55
2022/04/29 04:35:00;;;;;;;7.97;5.63;;;6.80;99.90;;;;;;4964306;28;20035;-57
2022/04/29 04:37:27;;;;;;;7.80;5.15;;;6.90;99.90;;;;;;4986788;28;20050;-57
2022/04/29 04:39:54;;;;;;;15.63;6.38;;;6.90;99.90;;;;;;4980646;28;20122;-57
2022/04/29 04:42:21;;;;;;;13.52;6.68;;;6.80;99.90;;;;;;4977003;28;20048;-58
2022/04/29 04:44:48;;;;;;;8.70;5.82;;;6.90;99.90;;;;;;4983243;28;20046;-58
2022/04/29 04:47:14;;;;;;;11.30;5.25;;;6.80;99.90;;;;;;4980994;28;20050;-58
2022/04/29 04:49:40;;;;;;;16.40;6.60;;;6.90;99.90;;;;;;4960636;28;20121;-58
2022/04/29 04:52:06;;;;;;;9.48;5.80;;;7.00;99.90;;;;;;4959647;28;20039;-58
2022/04/29 04:54:32;;;;;;;13.38;7.70;;;7.00;99.90;;;;;;4977911;28;20046;-58
2022/04/29 04:56:58;;;;;;;14.45;8.80;;;7.00;99.90;;;;;;4964492;28;20449;-58
2022/04/29 04:59:24;;;;;;;14.93;9.43;;;7.10;99.90;;;;;;4988593;28;20045;-57
2022/04/29 05:01:50;;;;;;;12.27;9.05;;;7.10;99.90;;;;;;4951056;28;20393;-58
2022/04/29 05:04:16;;;;;;;12.98;8.95;;;7.10;99.90;;;;;;4950872;28;20050;-58
2022/04/29 05:06:41;;;;;;;14.68;8.77;;;7.10;99.90;;;;;;4980742;28;20070;-57
2022/04/29 05:09:08;;;;;;;11.43;7.20;;;7.20;99.90;;;;;;4996115;28;20042;-58
2022/04/29 05:11:34;;;;;;;16.88;8.13;;;7.20;99.90;;;;;;4987107;28;20042;-57
2022/04/29 05:13:59;;;;;;;7.65;5.75;;;7.20;99.90;;;;;;4984737;28;20045;-57
2022/04/29 05:16:27;;;;;;;12.27;5.63;;;7.30;99.90;;;;;;4985494;28;20508;-58
2022/04/29 05:18:52;;;;;;;9.98;6.55;;;7.30;99.90;;;;;;4979586;28;20062;-58
2022/04/29 05:21:18;;;;;;;10.88;6.78;;;7.20;99.90;;;;;;4988277;28;20050;-58
2022/04/29 05:23:44;;;;;;;9.05;6.32;;;7.30;99.90;;;;;;4984654;28;20180;-57
2022/04/29 05:26:10;;;;;;;9.57;5.57;;;7.40;99.90;;;;;;4987735;28;20097;-58
2022/04/29 05:28:36;;;;;;;7.97;5.40;;;7.40;99.90;;;;;;4982708;28;20043;-58
2022/04/29 05:31:02;;;;;;;11.38;5.88;;;7.50;99.90;;;;;;4986179;28;20041;-58
2022/04/29 05:33:29;;;;;;;12.63;7.50;;;7.50;99.90;;;;;;4980810;28;20412;-58
2022/04/29 05:35:55;;;;;;;10.32;6.80;;;7.60;99.90;;;;;;4988560;28;20041;-58
2022/04/29 05:38:21;;;;;;;7.97;5.45;;;7.60;99.90;;;;;;4985602;28;20077;-58
2022/04/29 05:43:31;;;;;;;;;;;7.70;99.90;;;;;;4981170;28;20050;-58
2022/04/29 05:45:56;;;;;;;9.45;5.30;;;7.70;99.90;;;;;;4983248;28;19928;-58
2022/04/29 05:48:22;;;;;;;11.10;6.13;;;7.80;99.90;;;;;;4948012;28;20078;-58
2022/04/29 05:50:48;;;;;;;10.43;6.03;;;7.80;99.90;;;;;;4981677;28;20038;-58
2022/04/29 05:53:15;;;;;;;10.98;7.50;;;7.80;99.90;;;;;;4981184;28;20121;-58
2022/04/29 05:55:41;;;;;;;10.02;5.28;;;7.80;99.90;;;;;;4957514;28;20038;-56
2022/04/29 05:58:07;;;;;;;11.40;7.05;;;7.80;99.90;;;;;;4982735;28;20050;-58
2022/04/29 06:00:33;;;;;;;12.52;6.68;;;7.80;99.90;;;;;;4947627;28;20035;-58
2022/04/29 06:02:59;;;;;;;14.00;8.10;;;7.80;99.90;;;;;;4971671;28;20042;-58
2022/04/29 06:05:25;;;;;;;10.50;6.97;;;7.80;99.90;;;;;;4988615;28;20046;-58
2022/04/29 06:07:51;;;;;;;10.40;6.78;;;7.80;99.90;;;;;;4972679;28;20047;-58
2022/04/29 06:10:16;;;;;;;11.40;5.80;;;7.90;99.90;;;;;;4982571;23;20077;-58
2022/04/29 06:12:43;;;;;;;8.93;5.57;;;7.90;99.90;;;;;;4984903;28;20042;-57
2022/04/29 06:15:19;;;;;;;7.78;4.40;;;7.90;99.90;;;;;;4987872;28;20050;-58
2022/04/29 06:17:45;;;;;;;13.63;6.03;;;8.00;99.90;;;;;;4961144;28;20530;-58
2022/04/29 06:20:12;;;;;;;13.90;5.38;;;8.10;99.90;;;;;;4975467;28;20043;-58
2022/04/29 06:22:45;;;;;;;8.93;5.25;;;8.10;99.90;;;;;;4985771;28;20047;-57
2022/04/29 06:25:11;;;;;;;9.27;4.80;;;8.20;99.90;;;;;;4970094;28;20046;-58
2022/04/29 06:27:37;;;;;;;7.68;5.60;;;8.20;99.90;;;;;;4965190;28;20046;-58
2022/04/29 06:30:03;;;;;;;9.68;5.07;;;8.30;99.90;;;;;;4978643;28;20534;-60
2022/04/29 06:32:29;;;;;;;6.78;5.43;;;8.30;99.90;;;;;;4981922;28;20057;-58
2022/04/29 06:34:54;;;;;;;10.50;4.82;;;8.40;99.90;;;;;;4980417;28;20042;-58
2022/04/29 06:37:21;;;;;;;8.95;5.60;;;8.40;99.90;;;;;;4982313;28;20038;-58
2022/04/29 06:39:47;;;;;;;8.10;5.00;;;8.50;99.90;;;;;;4950265;28;20035;-58
2022/04/29 06:42:13;;;;;;;9.05;5.15;;;8.50;99.90;;;;;;4976913;28;20042;-56
2022/04/29 06:44:39;;;;;;;10.80;6.78;;;8.60;99.90;;;;;;4978354;28;20050;-60
2022/04/29 06:47:05;;;;;;;9.35;6.10;;;8.70;99.90;;;;;;4965885;28;20046;-59
2022/04/29 06:49:31;;;;;;;13.95;6.75;;;8.70;99.90;;;;;;4959723;28;20142;-56
2022/04/29 06:51:56;;;;;;;13.10;6.15;;;8.80;99.90;;;;;;4981160;28;20048;-56
2022/04/29 06:54:22;;;;;;;15.35;5.28;;;8.80;99.90;;;;;;4969527;28;20113;-56
2022/04/29 06:56:48;;;;;;;11.30;6.28;;;8.80;99.90;;;;;;4958586;28;20073;-58
2022/04/29 06:59:13;;;;;;;7.18;4.03;;;8.80;99.90;;;;;;4965872;28;20050;-60
2022/04/29 07:01:39;;;;;;;14.60;5.38;;;8.80;99.90;;;;;;4974988;28;20050;-59
2022/04/29 07:04:05;;;;;;;7.88;4.47;;;8.80;99.90;;;;;;4985590;28;20525;-56
2022/04/29 07:06:31;;;;;;;6.15;4.15;;;8.90;99.90;;;;;;4983519;28;20049;-58
2022/04/29 07:08:57;;;;;;;7.13;3.80;;;8.90;99.90;;;;;;4967995;28;20041;-55
2022/04/29 07:11:25;;;;;;;5.18;3.80;;;9.00;99.90;;;;;;4948368;28;20054;-58
2022/04/29 07:13:53;;;;;;;8.43;4.00;;;9.00;99.90;;;;;;4980806;28;20117;-60
2022/04/29 07:16:19;;;;;;;8.43;5.05;;;9.10;99.90;;;;;;4985112;28;20072;-61
2022/04/29 07:18:45;;;;;;;5.72;3.80;;;9.10;99.90;;;;;;4964894;28;20094;-59
2022/04/29 07:21:11;;;;;;;8.82;3.47;;;9.20;99.90;;;;;;4983990;28;20297;-57
2022/04/29 07:23:36;;;;;;;11.07;3.67;;;9.20;99.90;;;;;;4983083;28;20397;-58
2022/04/29 07:26:02;;;;;;;11.38;4.07;;;9.20;99.90;;;;;;4958338;28;20456;-57
2022/04/29 07:28:28;;;;;;;9.05;3.70;;;9.30;99.90;;;;;;4982317;28;20556;-60
2022/04/29 07:30:56;;;;;;;8.18;3.22;;;9.30;99.90;;;;;;4961904;28;20085;-60
2022/04/29 07:33:23;;;;;;;7.32;3.40;;;9.30;99.90;;;;;;4952515;28;20191;-56
2022/04/29 07:44:02;;;;;;;9.20;3.08;;;9.70;99.90;;;;;;4981080;28;20453;-56
2022/04/29 07:46:28;;;;;;;5.78;3.40;;;9.70;99.90;;;;;;4965504;28;20180;-57
2022/04/29 07:48:54;;;;;;;6.03;3.40;;;9.70;99.90;;;;;;4961483;28;20129;-59
2022/04/29 07:51:20;;;;;;;8.05;3.05;;;9.80;99.90;;;;;;4963689;28;20091;-57
2022/04/29 07:53:46;;;;;;;6.32;3.13;;;9.80;99.90;;;;;;4977866;28;20055;-58
2022/04/29 07:56:11;;;;;;;7.28;3.03;;;9.80;99.90;;;;;;4957709;28;20035;-57
2022/04/29 07:58:38;;;;;;;9.00;3.28;;;9.70;99.90;;;;;;4974406;28;20057;-59
2022/04/29 08:01:08;;;;;;;8.10;3.55;;;9.80;99.90;;;;;;4970401;28;20096;-59
2022/04/29 08:03:35;;;;;;;9.32;3.50;;;9.80;99.90;;;;;;4957742;28;20058;-61
2022/04/29 08:06:02;;;;;;;8.32;3.30;;;9.90;99.90;;;;;;4985192;28;20104;-58
2022/04/29 08:08:28;;;;;;;7.90;3.72;;;9.90;99.90;;;;;;4975926;28;20554;-59
2022/04/29 08:10:54;;;;;;;8.18;3.53;;;10.00;99.90;;;;;;4978633;28;20063;-57
2022/04/29 08:13:20;;;;;;;9.73;3.10;;;10.10;99.90;;;;;;4961174;28;20487;-58
2022/04/29 08:15:48;;;;;;;6.70;3.30;;;10.10;99.90;;;;;;4985434;28;20050;-57
2022/04/29 08:18:14;;;;;;;9.63;3.60;;;10.10;99.90;;;;;;4978838;28;20138;-60
2022/04/29 08:20:40;;;;;;;14.10;3.67;;;10.10;99.90;;;;;;4985901;28;20564;-59
2022/04/29 08:23:06;;;;;;;6.70;2.83;;;10.20;99.90;;;;;;4984229;28;20200;-55
2022/04/29 08:25:32;;;;;;;7.15;3.25;;;10.20;99.90;;;;;;4964918;28;20612;-53
2022/04/29 08:28:00;;;;;;;6.05;2.67;;;10.20;99.90;;;;;;4972429;28;20089;-56
2022/04/29 08:30:29;;;;;;;6.22;2.95;;;10.20;99.90;;;;;;4942415;28;20048;-59
2022/04/29 08:32:55;;;;;;;9.95;3.30;;;10.20;99.90;;;;;;4981973;28;20476;-59
2022/04/29 08:35:20;;;;;;;7.80;2.67;;;10.20;99.90;;;;;;4986765;28;20069;-56
2022/04/29 08:37:46;;;;;;;8.98;3.88;;;10.20;99.90;;;;;;4987142;28;20125;-55
2022/04/29 08:40:12;;;;;;;8.38;2.95;;;10.30;99.90;;;;;;4983843;28;20121;-56
2022/04/29 08:42:40;;;;;;;7.53;2.65;;;10.30;99.90;;;;;;4980678;28;20052;-58
2022/04/29 08:45:08;;;;;;;7.53;3.22;;;10.40;99.40;;;;;;4982782;28;20089;-57
2022/04/29 08:47:36;;;;;;;5.75;3.60;;;10.40;99.50;;;;;;4982846;28;20049;-61
2022/04/29 08:50:05;;;;;;;9.05;3.83;;;10.40;99.60;;;;;;4980387;28;20105;-58
2022/04/29 08:52:32;;;;;;;6.60;3.20;;;10.40;99.00;;;;;;4954965;28;20046;-56
2022/04/29 09:00:30;;;;;;;6.45;2.88;;;10.30;98.50;;;;;;4977872;28;20046;-56
2022/04/29 09:02:56;;;;;;;6.32;2.75;;;10.30;98.60;;;;;;4962142;28;20409;-56
2022/04/29 09:05:21;;;;;;;4.95;3.15;;;10.30;98.20;;;;;;4977430;28;20713;-59
2022/04/29 09:07:54;;;;;;;7.57;3.50;;;10.30;98.10;;;;;;4974782;28;20093;-61
2022/04/29 09:10:24;;;;;;;7.63;4.10;;;10.20;98.10;;;;;;4964603;28;20052;-56
2022/04/29 09:12:52;;;;;;;8.93;3.70;;;10.30;98.50;;;;;;4973708;28;20111;-57
2022/04/29 09:15:18;;;;;;;10.05;3.50;;;10.30;98.50;;;;;;4979227;28;20109;-58
2022/04/29 09:17:49;;;;;;;10.70;4.72;;;10.30;98.40;;;;;;4982764;28;20050;-60
2022/04/29 09:20:19;;;;;;;7.22;3.80;;;10.40;98.50;;;;;;4976810;28;20060;-58
2022/04/29 09:22:47;;;;;;;6.72;3.00;;;10.40;98.60;;;;;;4977219;28;20073;-57
2022/04/29 09:25:13;;;;;;;7.15;3.22;;;10.40;98.60;;;;;;4980366;28;20127;-58
2022/04/29 09:28:02;;;;;;;5.40;3.72;;;10.30;98.40;;;;;;4976163;28;20038;-58
2022/04/29 09:30:46;;;;;;;8.13;3.40;;;10.30;98.20;;;;;;4980491;28;20046;-57
2022/04/29 09:33:19;;;;;;;;;;;10.30;98.50;;;;;;4976404;28;20042;-56
2022/04/29 09:35:49;;;;;;;5.35;3.53;;;10.20;98.40;;;;;;4959998;28;20004;-59
2022/04/29 09:41:00;;;;;;;7.32;3.33;;;10.20;98.50;;;;;;4987174;28;20069;-58
2022/04/29 09:43:40;;;;;;;9.70;3.63;;;10.20;98.50;;;;;;4966357;28;20070;-57
2022/04/29 09:46:23;;;;;;;9.13;3.67;;;10.20;98.30;;;;;;4964799;28;20049;-61
2022/04/29 09:48:58;;;;;;;5.33;3.13;;;10.30;98.20;;;;;;4985621;28;20089;-57
2022/04/29 09:51:46;;;;;;;6.40;2.80;;;10.30;98.30;;;;;;4971382;28;20385;-57
2022/04/29 09:54:27;;;;;;;7.90;3.40;;;10.30;98.00;;;;;;4984289;28;20124;-56
2022/04/29 09:57:14;;;;;;;6.97;3.40;;;10.30;98.00;;;;;;4971441;28;20034;-55
2022/04/29 09:59:44;;;;;;;7.45;3.35;;;10.40;97.90;;;;;;4990720;28;20425;-58
2022/04/29 10:02:11;;;;;;;10.48;3.88;;;10.40;97.60;;;;;;4977685;28;20140;-58
2022/04/29 10:04:40;;;;;;;9.60;3.53;;;10.40;97.40;;;;;;4980306;28;20269;-58
2022/04/29 10:07:08;;;;;;;8.35;4.45;;;10.50;97.60;;;;;;4966781;28;20417;-59
2022/04/29 10:09:36;;;;;;;12.00;5.60;;;10.50;97.40;;;;;;4988028;28;20046;-59
2022/04/29 10:12:04;;;;;;;6.22;4.07;;;10.50;97.10;;;;;;4985018;28;20042;-57
2022/04/29 10:14:32;;;;;;;7.85;4.60;;;10.60;96.90;;;;;;4968038;28;20268;-55
2022/04/29 10:22:41;;;;;;;8.38;4.53;;;10.60;96.30;;;;;;4975088;28;20425;-57
2022/04/29 10:25:08;;;;;;;10.15;5.93;;;10.50;96.30;;;;;;4977323;28;20714;-57
2022/04/29 10:27:40;;;;;;;7.22;4.68;;;10.60;96.60;;;;;;4951766;28;20042;-61
2022/04/29 10:30:07;;;;;;;6.93;4.03;;;10.60;96.50;;;;;;4977793;28;20050;-59
2022/04/29 10:33:06;;;;;;;9.70;3.88;;;10.60;96.80;;;;;;4979217;28;20038;-57
2022/04/29 10:35:42;;;;;;;9.25;3.22;;;10.60;96.70;;;;;;4952025;28;20129;-59
2022/04/29 10:38:13;;;;;;;8.45;3.88;;;10.60;96.70;;;;;;4986788;28;20468;-58
2022/04/29 10:40:38;;;;;;;6.50;3.42;;;10.60;96.80;;;;;;4967213;28;20442;-59
2022/04/29 10:43:09;;;;;;;6.20;3.20;;;10.60;96.80;;;;;;4964281;28;20117;-57
2022/04/29 10:45:36;;;;;;;6.70;3.58;;;10.50;97.00;;;;;;4987014;28;20473;-59
2022/04/29 10:48:37;;;;;;;8.10;3.75;;;10.50;96.90;;;;;;4995343;28;20056;-62
2022/04/29 10:51:09;;;;;;;7.20;3.58;;;10.50;97.00;;;;;;4976173;28;20409;-59
2022/04/29 10:53:41;;;;;;;9.57;3.90;;;10.50;97.00;;;;;;4985453;28;20039;-62
2022/04/29 10:56:30;;;;;;;12.02;3.60;;;10.50;96.80;;;;;;4981351;28;20042;-59
2022/04/29 10:59:07;;;;;;;6.15;3.15;;;10.50;96.70;;;;;;4979559;28;20065;-59
2022/04/29 11:01:34;;;;;;;5.95;3.47;;;10.50;96.80;;;;;;4977773;28;20046;-62
2022/04/29 11:04:07;;;;;;;6.78;3.28;;;10.60;97.10;;;;;;4977842;28;20046;-58
2022/04/29 11:06:44;;;;;;;9.05;3.38;;;10.70;96.40;;;;;;4970424;28;20136;-56
2022/04/29 11:09:27;;;;;;;6.53;3.58;;;10.70;96.50;;;;;;4975682;28;20552;-57
2022/04/29 11:11:54;;;;;;;6.75;3.05;;;10.80;96.40;;;;;;4975736;28;20042;-57
2022/04/29 11:14:20;;;;;;;7.15;3.65;;;10.90;96.20;;;;;;4948626;28;20101;-57
2022/04/29 11:16:52;;;;;;;8.23;3.30;;;11.00;96.20;;;;;;4980920;28;20039;-59
2022/04/29 11:19:23;;;;;;;9.32;3.28;;;11.00;95.50;;;;;;4973156;28;20053;-59
2022/04/29 11:24:43;;;;;;;4.43;2.95;;;11.10;95.60;;;;;;4970136;28;20053;-59
2022/04/29 11:27:10;;;;;;;6.60;2.58;;;11.20;95.20;;;;;;4976549;28;20044;-60
2022/04/29 11:29:43;;;;;;;6.35;2.75;;;11.20;95.10;;;;;;4976545;28;20489;-62
2022/04/29 11:32:09;;;;;;;5.53;2.80;;;11.10;94.40;;;;;;4974286;28;20061;-57
2022/04/29 11:34:49;;;;;;;4.45;3.13;;;11.10;94.30;;;;;;4961701;28;20039;-59
2022/04/29 11:37:15;;;;;;;7.60;3.05;;;11.20;94.60;;;;;;4980691;28;20225;-59
2022/04/29 11:39:41;;;;;;;4.43;2.90;;;11.20;94.50;;;;;;4967003;28;20101;-61
2022/04/29 11:42:08;;;;;;;6.90;2.88;;;11.10;94.90;;;;;;4959247;28;20062;-62
2022/04/29 11:44:38;;;;;;;5.20;3.15;;;11.10;94.70;;;;;;4966688;28;20133;-61
2022/04/29 11:47:05;;;;;;;9.35;2.90;;;11.10;95.00;;;;;;4973209;28;20100;-59
2022/04/29 11:49:35;;;;;;;8.07;3.95;;;11.10;95.00;;;;;;4982807;28;20046;-59
2022/04/29 11:52:23;;;;;;;6.45;3.17;;;11.10;95.00;;;;;;4965620;28;20521;-58
2022/04/29 11:54:52;;;;;;;5.80;3.05;;;11.20;95.20;;;;;;4982755;28;20043;-58
2022/04/29 11:57:17;;;;;;;5.43;2.83;;;11.20;95.20;;;;;;4964603;28;20058;-59
2022/04/29 11:59:44;;;;;;;4.95;2.60;;;11.30;95.30;;;;;;4983200;28;20394;-58
2022/04/29 12:02:11;;;;;;;4.00;2.58;;;11.20;95.10;;;;;;4982557;28;20642;-58
2022/04/29 12:04:37;;;;;;;7.93;2.83;;;11.20;95.00;;;;;;4966454;28;20564;-61
2022/04/29 12:07:05;;;;;;;8.48;3.30;;;11.20;95.10;;;;;;4981256;28;20050;-57
2022/04/29 12:09:34;;;;;;;4.57;3.53;;;11.40;95.10;;;;;;4961589;28;20047;-59
2022/04/29 12:12:00;;;;;;;3.50;2.60;;;11.50;95.00;;;;;;4981983;28;20304;-58
2022/04/29 12:14:29;;;;;;;6.38;3.00;;;11.70;94.60;;;;;;4984184;28;20045;-58
2022/04/29 12:16:54;;;;;;;6.80;3.00;;;11.90;94.20;;;;;;4953976;28;20039;-61
2022/04/29 12:19:23;;;;;;;7.38;3.10;;;12.00;93.50;;;;;;4968238;28;20556;-60
2022/04/29 12:21:55;;;;;;;7.93;3.42;;;12.00;93.40;;;;;;4980052;28;21049;-58
2022/04/29 12:24:21;;;;;;;6.10;3.28;;;12.00;93.40;;;;;;4962422;28;20105;-56
2022/04/29 12:27:07;;;;;;;7.75;2.85;;;11.90;92.40;;;;;;4962432;28;20054;-57
2022/04/29 12:29:33;;;;;;;4.93;2.70;;;11.70;92.20;;;;;;4981153;28;20097;-58
2022/04/29 12:35:11;;;;;;;7.00;2.90;;;11.40;92.30;;;;;;4977200;28;20220;-60
2022/04/29 12:37:37;;;;;;;4.32;2.60;;;11.40;93.10;;;;;;4978999;28;20042;-57
2022/04/29 12:40:05;;;;;;;3.53;2.55;;;11.50;93.20;;;;;;4981262;28;20100;-58
2022/04/29 12:42:30;;;;;;;4.93;3.00;;;11.60;93.20;;;;;;4963606;28;20074;-61
2022/04/29 12:45:14;;;;;;;8.70;2.88;;;11.70;93.10;;;;;;4981298;28;20062;-59
2022/04/29 12:47:42;;;;;;;6.73;2.73;;;11.80;93.20;;;;;;4960990;28;20042;-61
2022/04/29 12:50:15;;;;;;;7.03;2.85;;;11.90;93.50;;;;;;4975043;28;20043;-59
2022/04/29 12:52:52;;;;;;;5.45;2.72;;;12.00;93.40;;;;;;4972927;28;20038;-59
2022/04/29 12:55:18;;;;;;;5.45;3.30;;;12.10;93.50;;;;;;4965319;28;20234;-58
2022/04/29 12:57:45;;;;;;;4.38;2.70;;;12.20;93.50;;;;;;4964627;28;20050;-60
2022/04/29 13:00:20;;;;;;;4.30;2.50;;;12.20;93.20;;;;;;4975297;28;20436;-60
2022/04/29 13:02:56;;;;;;;5.72;3.92;;;12.20;93.30;;;;;;4981135;28;20042;-62
2022/04/29 13:05:21;;;;;;;8.27;4.63;;;12.20;92.80;;;;;;4972251;28;20050;-64
2022/04/29 13:07:47;;;;;;;8.13;3.75;;;12.10;93.00;;;;;;4977784;28;20045;-61
2022/04/29 13:10:13;;;;;;;5.10;3.22;;;12.10;93.10;;;;;;4951020;28;20215;-61
2022/04/29 13:12:39;;;;;;;8.38;3.70;;;12.10;93.30;;;;;;4950750;28;20038;-61
2022/04/29 13:15:05;;;;;;;10.15;3.63;;;12.10;93.10;;;;;;4983215;28;20049;-60
2022/04/29 13:17:31;;;;;;;8.57;3.63;;;12.00;93.00;;;;;;4968909;28;20050;-60
2022/04/29 13:19:57;;;;;;;6.05;3.67;;;12.00;93.20;;;;;;4979029;28;20042;-63
2022/04/29 13:22:22;;;;;;;10.10;4.13;;;11.90;93.20;;;;;;4961701;28;20053;-62
2022/04/29 13:24:48;;;;;;;10.77;4.25;;;12.00;93.70;;;;;;4978835;28;20601;-58
2022/04/29 13:27:14;;;;;;;7.28;3.45;;;12.00;93.70;;;;;;4965934;28;20038;-61
2022/04/29 13:29:40;;;;;;;8.65;3.97;;;11.90;93.30;;;;;;4938916;28;20145;-63